Time;durP1;ratioP1;P1;durP2;ratioP2;P2;SDS_P1;SDS_P2;PMS_P1;PMS_P2;Temp;Humidity;BMP_temperature;BMP_pressure;BME280_temperature;BME280_humidity;BME280_pressure;Samples;Min_cycle;Max_cycle;Signal;HPM_P1;HPM_P2
2024/03/01 00:01:42;;;;;;;42.55;25.48;;;;;;;;;;5042729;28;20309;-68
2024/03/01 00:04:08;;;;;;;46.88;24.98;;;10.30;99.90;;;;;;5042642;28;20025;-68
2024/03/01 00:06:34;;;;;;;42.45;25.42;;;;;;;;;;5042543;28;20021;-69
2024/03/01 00:08:59;;;;;;;46.47;26.35;;;10.40;99.90;;;;;;5042856;28;20088;-70
2024/03/01 00:11:26;;;;;;;43.92;25.23;;;10.40;99.80;;;;;;5042166;28;20328;-66
2024/03/01 00:13:52;;;;;;;46.00;24.17;;;;;;;;;;5042474;28;20053;-67
2024/03/01 00:16:19;;;;;;;49.13;24.60;;;;;;;;;;5042221;28;20033;-66
2024/03/01 00:18:45;;;;;;;49.05;26.90;;;;;;;;;;5042689;28;20044;-67
2024/03/01 00:21:15;;;;;;;49.13;25.98;;;10.10;99.90;;;;;;5042538;28;20079;-67
2024/03/01 00:23:42;;;;;;;46.60;26.88;;;10.10;99.90;;;;;;5041157;28;20029;-66
2024/03/01 00:26:08;;;;;;;47.97;25.13;;;;;;;;;;5042073;28;20319;-67
2024/03/01 00:28:34;;;;;;;51.08;26.48;;;10.10;99.00;;;;;;5042199;28;20017;-66
2024/03/01 00:31:01;;;;;;;50.58;27.95;;;9.90;99.90;;;;;;5042376;28;20293;-67
2024/03/01 00:33:26;;;;;;;52.25;27.98;;;10.30;99.90;;;;;;5042142;28;20025;-67
2024/03/01 00:35:52;;;;;;;51.95;26.85;;;9.80;99.90;;;;;;5042708;28;20194;-67
2024/03/01 00:38:18;;;;;;;50.80;28.13;;;;;;;;;;5042199;28;20229;-66
2024/03/01 00:40:45;;;;;;;50.58;26.45;;;9.80;99.90;;;;;;5032435;28;20080;-66
2024/03/01 00:43:11;;;;;;;48.60;26.83;;;9.70;99.90;;;;;;5022851;28;20093;-67
2024/03/01 00:45:37;;;;;;;47.40;26.33;;;;;;;;;;5032685;28;20492;-67
2024/03/01 00:48:13;;;;;;;53.10;28.63;;;9.60;99.90;;;;;;5042201;28;20057;-68
2024/03/01 00:50:40;;;;;;;44.92;25.63;;;9.80;99.90;;;;;;5041961;28;20057;-67
2024/03/01 00:53:08;;;;;;;44.72;24.98;;;9.90;99.90;;;;;;5042160;28;20041;-67
2024/03/01 00:55:35;;;;;;;42.58;26.38;;;;;;;;;;5042486;28;20029;-66
2024/03/01 00:58:00;;;;;;;47.53;25.67;;;10.10;99.90;;;;;;5042340;28;20095;-67
2024/03/01 01:00:28;;;;;;;46.05;25.70;;;10.00;99.90;;;;;;5042393;28;20045;-67
2024/03/01 01:02:54;;;;;;;47.35;26.38;;;10.10;99.90;;;;;;5041315;28;20045;-66
2024/03/01 01:05:22;;;;;;;44.33;25.00;;;;;;;;;;5041712;28;20059;-67
2024/03/01 01:07:48;;;;;;;44.47;26.40;;;10.30;99.90;;;;;;5041848;28;20393;-67
2024/03/01 01:10:15;;;;;;;47.33;24.73;;;;;;;;;;5040267;28;20407;-68
2024/03/01 01:12:41;;;;;;;40.53;22.73;;;10.50;99.90;;;;;;5041349;28;20421;-69
2024/03/01 01:15:07;;;;;;;45.63;25.02;;;10.50;99.50;;;;;;5041397;28;20022;-69
2024/03/01 01:17:33;;;;;;;42.55;25.27;;;;;;;;;;5041249;28;20037;-67
2024/03/01 01:19:59;;;;;;;43.28;25.50;;;;;;;;;;5040715;28;20033;-71
2024/03/01 01:22:25;;;;;;;41.97;24.65;;;10.50;99.90;;;;;;5041117;28;20025;-67
2024/03/01 01:24:52;;;;;;;45.97;24.38;;;10.60;97.20;;;;;;5041218;28;20029;-68
2024/03/01 01:27:18;;;;;;;43.83;24.30;;;;;;;;;;5042379;28;20022;-67
2024/03/01 01:29:44;;;;;;;37.83;23.35;;;;;;;;;;5052169;28;20040;-68
2024/03/01 01:32:09;;;;;;;41.25;23.38;;;10.80;99.90;;;;;;5041115;28;20021;-68
2024/03/01 01:34:35;;;;;;;36.90;22.10;;;10.70;99.90;;;;;;5041172;28;20053;-66
2024/03/01 01:37:03;;;;;;;39.72;23.80;;;10.90;99.90;;;;;;5041177;28;20049;-68
2024/03/01 01:39:30;;;;;;;40.17;23.70;;;;;;;;;;5040878;28;20076;-68
2024/03/01 01:41:56;;;;;;;37.65;23.00;;;;;;;;;;5036253;28;20053;-66
2024/03/01 01:44:22;;;;;;;46.13;24.95;;;11.10;99.90;;;;;;5021251;28;20030;-67
2024/03/01 01:46:49;;;;;;;40.30;22.63;;;10.60;99.90;;;;;;5020940;28;20030;-67
2024/03/01 01:49:17;;;;;;;37.67;22.92;;;10.90;99.90;;;;;;5020993;28;20048;-66
2024/03/01 01:51:43;;;;;;;37.38;22.58;;;10.80;99.90;;;;;;5019352;28;20025;-68
2024/03/01 01:54:09;;;;;;;42.72;22.38;;;10.70;95.10;;;;;;5035566;28;20035;-68
2024/03/01 01:56:36;;;;;;;34.30;21.20;;;10.70;95.00;;;;;;5040692;28;20254;-68
2024/03/01 01:59:03;;;;;;;40.67;22.52;;;10.80;99.90;;;;;;5040613;28;20025;-68
2024/03/01 02:01:30;;;;;;;39.45;23.63;;;10.70;94.80;;;;;;5040604;28;20033;-68
2024/03/01 02:03:56;;;;;;;36.40;22.73;;;10.60;94.80;;;;;;5040324;28;20026;-67
2024/03/01 02:06:22;;;;;;;41.33;23.65;;;;;;;;;;5040565;28;20033;-68
2024/03/01 02:08:50;;;;;;;39.13;22.15;;;10.70;99.90;;;;;;5040858;28;20017;-67
2024/03/01 02:11:16;;;;;;;39.42;22.23;;;;;;;;;;5040128;28;20305;-68
2024/03/01 02:13:42;;;;;;;38.30;22.15;;;;;;;;;;5040321;28;20328;-67
2024/03/01 02:16:08;;;;;;;38.50;21.90;;;10.40;99.90;;;;;;5040696;28;20032;-68
2024/03/01 02:18:34;;;;;;;40.78;22.83;;;;;;;;;;5040608;28;20025;-68
2024/03/01 02:21:04;;;;;;;41.70;22.08;;;10.60;99.90;;;;;;5040838;28;20268;-68
2024/03/01 02:23:29;;;;;;;38.65;22.52;;;10.40;99.90;;;;;;5040705;28;20036;-66
2024/03/01 02:25:55;;;;;;;37.45;20.45;;;10.40;99.90;;;;;;5040535;28;20022;-67
2024/03/01 02:28:21;;;;;;;37.33;22.15;;;;;;;;;;5040633;28;20025;-69
2024/03/01 02:30:47;;;;;;;40.00;22.83;;;10.60;99.90;;;;;;5040855;28;20025;-68
2024/03/01 02:33:12;;;;;;;37.45;22.10;;;10.40;99.90;;;;;;5040456;28;20025;-68
2024/03/01 02:35:38;;;;;;;38.78;23.15;;;10.50;99.30;;;;;;5040460;28;20057;-68
2024/03/01 02:38:04;;;;;;;39.67;22.42;;;;;;;;;;5040600;28;20376;-68
2024/03/01 02:40:31;;;;;;;38.70;23.95;;;10.60;94.10;;;;;;5032164;28;20037;-67
2024/03/01 02:42:57;;;;;;;45.38;23.55;;;;;;;;;;5019332;28;20310;-68
2024/03/01 02:45:23;;;;;;;41.78;21.58;;;;;;;;;;5036946;28;20105;-67
2024/03/01 02:47:49;;;;;;;41.53;24.38;;;10.60;99.90;;;;;;5040516;28;20018;-69
2024/03/01 02:50:15;;;;;;;39.58;22.00;;;;;;;;;;5038834;28;20048;-71
2024/03/01 02:52:41;;;;;;;38.92;21.33;;;;;;;;;;5040670;28;20037;-67
2024/03/01 02:55:07;;;;;;;38.35;21.55;;;;;;;;;;5039947;28;20043;-67
2024/03/01 02:57:33;;;;;;;37.83;23.45;;;10.70;99.90;;;;;;5039766;28;20095;-67
2024/03/01 02:59:59;;;;;;;38.72;23.20;;;10.90;99.90;;;;;;5039571;28;20069;-67
2024/03/01 03:02:26;;;;;;;38.90;23.02;;;10.70;93.30;;;;;;5039049;28;20048;-68
2024/03/01 03:04:53;;;;;;;37.08;23.27;;;10.70;99.90;;;;;;5040041;28;20060;-68
2024/03/01 03:07:20;;;;;;;34.80;21.00;;;11.00;97.00;;;;;;5039915;28;20034;-68
2024/03/01 03:09:45;;;;;;;39.15;21.83;;;10.90;99.90;;;;;;5040399;28;20025;-68
2024/03/01 03:12:12;;;;;;;40.00;24.08;;;10.60;99.90;;;;;;5039916;28;20095;-67
2024/03/01 03:14:38;;;;;;;35.95;21.20;;;10.70;97.90;;;;;;5040019;28;20060;-67
2024/03/01 03:17:07;;;;;;;41.13;22.70;;;10.70;99.90;;;;;;5040261;28;20037;-68
2024/03/01 03:19:35;;;;;;;34.03;22.48;;;11.10;99.90;;;;;;5039819;28;20021;-68
2024/03/01 03:22:08;;;;;;;42.90;22.83;;;;;;;;;;5038540;28;20098;-68
2024/03/01 03:24:42;;;;;;;40.45;23.25;;;10.70;99.90;;;;;;5039742;28;20056;-68
2024/03/01 03:27:08;;;;;;;37.10;20.40;;;;;;;;;;5039740;28;20044;-69
2024/03/01 03:29:35;;;;;;;36.35;22.40;;;11.00;99.90;;;;;;5039822;28;20033;-68
2024/03/01 03:32:01;;;;;;;39.25;23.27;;;;;;;;;;5038419;28;20053;-68
2024/03/01 03:34:26;;;;;;;37.17;22.48;;;10.50;99.90;;;;;;5039431;28;20065;-67
2024/03/01 03:36:53;;;;;;;39.08;22.95;;;;;;;;;;5020434;28;20091;-67
2024/03/01 03:39:19;;;;;;;32.95;22.08;;;;;;;;;;5020088;28;20026;-68
2024/03/01 03:41:44;;;;;;;37.95;21.50;;;10.50;99.90;;;;;;5038051;28;20045;-67
2024/03/01 03:44:10;;;;;;;34.28;20.73;;;10.80;99.90;;;;;;5039808;28;20468;-67
2024/03/01 03:46:35;;;;;;;34.97;21.88;;;10.60;95.40;;;;;;5039882;28;20045;-68
2024/03/01 03:49:07;;;;;;;41.00;22.25;;;10.60;92.70;;;;;;5039435;28;20026;-68
2024/03/01 03:51:33;;;;;;;33.72;21.10;;;10.60;92.50;;;;;;5039646;28;20021;-68
2024/03/01 03:54:04;;;;;;;40.78;21.55;;;10.60;92.50;;;;;;5039605;28;20032;-69
2024/03/01 03:56:33;;;;;;;35.05;20.10;;;10.70;94.30;;;;;;5039242;28;20033;-71
2024/03/01 03:58:59;;;;;;;34.95;21.83;;;10.60;99.90;;;;;;5039392;28;20068;-69
2024/03/01 04:01:25;;;;;;;34.13;19.48;;;;;;;;;;5039205;28;20401;-68
2024/03/01 04:03:51;;;;;;;36.63;20.88;;;10.70;99.90;;;;;;5039596;28;20041;-68
2024/03/01 04:06:18;;;;;;;37.45;20.88;;;;;;;;;;5039665;28;20034;-68
2024/03/01 04:08:43;;;;;;;34.28;21.85;;;10.60;99.90;;;;;;5044246;28;20025;-69
2024/03/01 04:11:09;;;;;;;40.53;21.80;;;10.60;98.30;;;;;;5041298;28;20068;-68
2024/03/01 04:13:38;;;;;;;40.58;23.10;;;10.50;92.30;;;;;;5044232;28;20021;-68
2024/03/01 04:16:08;;;;;;;36.78;21.88;;;10.90;92.50;;;;;;5046052;28;20030;-69
2024/03/01 04:18:34;;;;;;;33.67;21.63;;;10.50;99.90;;;;;;5045899;28;20356;-68
2024/03/01 04:21:01;;;;;;;44.22;24.75;;;10.50;99.90;;;;;;5046529;28;20037;-67
2024/03/01 04:23:28;;;;;;;45.78;23.13;;;10.50;99.90;;;;;;5045289;28;20026;-68
2024/03/01 04:25:54;;;;;;;37.92;22.10;;;10.90;99.90;;;;;;5046595;28;20094;-67
2024/03/01 04:28:21;;;;;;;33.40;20.17;;;10.60;96.50;;;;;;5044537;28;20067;-71
2024/03/01 04:30:48;;;;;;;37.83;20.88;;;;;;;;;;5051678;28;20110;-66
2024/03/01 04:33:14;;;;;;;38.42;18.70;;;10.70;92.60;;;;;;5048696;28;20029;-67
2024/03/01 04:35:41;;;;;;;33.95;18.70;;;10.60;95.80;;;;;;5046248;28;20300;-69
2024/03/01 04:38:07;;;;;;;35.08;20.05;;;10.60;91.60;;;;;;5045277;28;20205;-68
2024/03/01 04:40:33;;;;;;;34.22;19.98;;;10.70;99.10;;;;;;5047546;28;20061;-67
2024/03/01 04:42:59;;;;;;;37.05;20.10;;;;;;;;;;5044170;28;20024;-65
2024/03/01 04:45:26;;;;;;;36.20;21.77;;;10.90;99.10;;;;;;5045408;28;20033;-66
2024/03/01 04:47:52;;;;;;;34.88;20.98;;;;;;;;;;5044682;28;20026;-67
2024/03/01 04:50:18;;;;;;;37.47;20.75;;;;;;;;;;5046845;28;20037;-69
2024/03/01 04:52:44;;;;;;;30.80;17.48;;;;;;;;;;5045909;28;20060;-68
2024/03/01 04:55:11;;;;;;;32.40;20.20;;;10.90;99.10;;;;;;5046094;28;20021;-68
2024/03/01 04:57:37;;;;;;;33.47;22.30;;;10.50;99.20;;;;;;5045486;28;20095;-69
2024/03/01 05:00:11;;;;;;;36.28;20.80;;;10.50;91.40;;;;;;5044198;28;20037;-69
2024/03/01 05:02:41;;;;;;;33.42;20.83;;;10.40;99.10;;;;;;5044879;28;20017;-68
2024/03/01 05:05:18;;;;;;;36.30;19.20;;;10.50;91.30;;;;;;5044728;28;20021;-68
2024/03/01 05:07:48;;;;;;;38.80;21.63;;;;;;;;;;5045054;28;20028;-68
2024/03/01 05:10:15;;;;;;;35.65;20.45;;;10.40;98.80;;;;;;5046545;28;20037;-66
2024/03/01 05:12:42;;;;;;;32.22;20.20;;;10.50;91.30;;;;;;5044475;28;20029;-69
2024/03/01 05:15:08;;;;;;;39.72;21.70;;;10.50;91.40;;;;;;5043290;28;20025;-67
2024/03/01 05:17:36;;;;;;;36.05;21.60;;;10.40;91.40;;;;;;5044021;28;20091;-66
2024/03/01 05:20:10;;;;;;;37.45;22.88;;;10.30;93.80;;;;;;5044195;28;20045;-67
2024/03/01 05:22:38;;;;;;;37.53;20.52;;;10.40;91.70;;;;;;5043806;28;20025;-67
2024/03/01 05:25:17;;;;;;;34.83;21.77;;;10.30;91.70;;;;;;5043334;28;20032;-69
2024/03/01 05:27:48;;;;;;;42.90;22.02;;;10.60;99.60;;;;;;5044480;28;20200;-68
2024/03/01 05:30:18;;;;;;;41.35;23.85;;;10.30;91.90;;;;;;5045169;28;20440;-68
2024/03/01 05:32:44;;;;;;;40.58;21.42;;;;;;;;;;5043007;28;20029;-66
2024/03/01 05:35:12;;;;;;;32.63;20.88;;;10.20;94.40;;;;;;5043950;28;20065;-68
2024/03/01 05:37:38;;;;;;;38.83;21.50;;;10.50;97.10;;;;;;5044019;28;20021;-68
2024/03/01 05:40:05;;;;;;;37.83;18.55;;;10.40;91.50;;;;;;5039181;28;20034;-66
2024/03/01 05:42:31;;;;;;;36.20;20.13;;;10.50;99.20;;;;;;5023151;28;20028;-68
2024/03/01 05:44:57;;;;;;;30.73;18.60;;;10.50;99.00;;;;;;5023997;28;20087;-65
2024/03/01 05:47:23;;;;;;;36.00;18.80;;;10.50;98.80;;;;;;5023152;28;20280;-67
2024/03/01 05:49:48;;;;;;;34.05;18.73;;;10.50;94.40;;;;;;5023167;28;20188;-70
2024/03/01 05:52:14;;;;;;;30.40;17.95;;;10.50;92.40;;;;;;5038982;28;20098;-65
2024/03/01 05:54:41;;;;;;;31.75;17.65;;;;;;;;;;5043465;28;20025;-67
2024/03/01 05:57:08;;;;;;;39.53;20.15;;;10.70;90.60;;;;;;5043451;28;20033;-67
2024/03/01 05:59:33;;;;;;;35.78;19.67;;;10.60;98.20;;;;;;5042348;28;20530;-72
2024/03/01 06:01:59;;;;;;;29.65;19.25;;;10.50;98.10;;;;;;5042879;28;20037;-69
2024/03/01 06:04:25;;;;;;;31.80;18.42;;;11.20;98.40;;;;;;5042823;28;20039;-65
2024/03/01 06:06:50;;;;;;;39.10;19.83;;;10.60;98.10;;;;;;5042227;28;20030;-67
2024/03/01 06:09:17;;;;;;;35.13;19.85;;;;;;;;;;5042395;28;20034;-66
2024/03/01 06:11:43;;;;;;;37.80;20.02;;;10.80;97.80;;;;;;5042559;28;20056;-68
2024/03/01 06:14:10;;;;;;;32.42;19.50;;;11.00;97.60;;;;;;5042372;28;20044;-65
2024/03/01 06:16:36;;;;;;;32.60;19.52;;;10.90;97.50;;;;;;5041063;28;20037;-65
2024/03/01 06:19:02;;;;;;;34.08;20.08;;;;;;;;;;5040741;28;20032;-64
2024/03/01 06:21:29;;;;;;;34.67;19.85;;;10.80;91.60;;;;;;5041317;28;20029;-65
2024/03/01 06:23:55;;;;;;;32.58;18.85;;;;;;;;;;5040391;28;20037;-66
2024/03/01 06:26:22;;;;;;;34.38;18.83;;;;;;;;;;5039614;28;20052;-65
2024/03/01 06:28:48;;;;;;;32.13;19.95;;;;;;;;;;5040992;28;20047;-65
2024/03/01 06:31:14;;;;;;;32.10;16.67;;;;;;;;;;5040943;28;20109;-65
2024/03/01 06:33:41;;;;;;;40.70;19.75;;;;;;;;;;5040053;28;20021;-69
2024/03/01 06:36:08;;;;;;;32.53;18.98;;;;;;;;;;5040361;28;20030;-65
2024/03/01 06:38:35;;;;;;;31.80;19.75;;;;;;;;;;5040236;28;20021;-68
2024/03/01 06:41:02;;;;;;;33.58;19.45;;;;;;;;;;5033776;28;20064;-67
2024/03/01 06:43:29;;;;;;;32.88;18.35;;;;;;;;;;5041826;28;20025;-70
2024/03/01 06:45:54;;;;;;;32.85;18.67;;;11.00;96.30;;;;;;5041712;28;20028;-66
2024/03/01 06:48:21;;;;;;;36.00;18.23;;;;;;;;;;5041864;28;20029;-67
2024/03/01 06:50:47;;;;;;;35.53;17.83;;;11.00;96.30;;;;;;5041861;28;20049;-65
2024/03/01 06:53:13;;;;;;;33.47;17.45;;;11.30;96.40;;;;;;5040972;28;20032;-66
2024/03/01 06:55:39;;;;;;;34.05;17.77;;;;;;;;;;5041112;28;20025;-66
2024/03/01 06:58:04;;;;;;;31.85;18.30;;;11.30;96.20;;;;;;5040568;28;20106;-65
2024/03/01 07:00:34;;;;;;;30.30;18.17;;;;;;;;;;5039808;28;20334;-71
2024/03/01 07:03:00;;;;;;;34.90;19.52;;;11.30;96.00;;;;;;5040365;28;20017;-66
2024/03/01 07:05:25;;;;;;;26.30;17.55;;;11.40;95.80;;;;;;5038869;28;20025;-66
2024/03/01 07:07:51;;;;;;;28.52;18.35;;;11.20;95.50;;;;;;5040191;28;20022;-66
2024/03/01 07:10:17;;;;;;;31.05;17.27;;;11.50;95.80;;;;;;5040090;28;20033;-65
2024/03/01 07:12:42;;;;;;;27.77;16.48;;;11.50;89.00;;;;;;5039665;28;20021;-65
2024/03/01 07:15:08;;;;;;;30.65;16.58;;;11.40;95.80;;;;;;5039611;28;20036;-66
2024/03/01 07:17:34;;;;;;;29.08;17.67;;;;;;;;;;5036020;28;20041;-65
2024/03/01 07:20:00;;;;;;;30.08;18.10;;;11.60;95.50;;;;;;5070225;28;20025;-67
2024/03/01 07:22:26;;;;;;;34.15;17.95;;;11.80;95.20;;;;;;5038005;28;20029;-65
2024/03/01 07:24:52;;;;;;;27.27;16.98;;;11.90;95.20;;;;;;5038879;28;20075;-66
2024/03/01 07:27:18;;;;;;;31.15;18.17;;;;;;;;;;5037820;28;20029;-65
2024/03/01 07:29:45;;;;;;;27.67;16.98;;;;;;;;;;5038360;28;20052;-65
2024/03/01 07:32:11;;;;;;;39.35;19.50;;;11.40;95.60;;;;;;5039526;28;20064;-68
2024/03/01 07:34:36;;;;;;;32.55;19.05;;;11.70;96.30;;;;;;5038983;28;20128;-69
2024/03/01 07:37:02;;;;;;;32.63;18.85;;;11.60;96.80;;;;;;5039316;28;20064;-68
2024/03/01 07:39:28;;;;;;;34.40;19.13;;;;;;;;;;5039140;28;20087;-67
2024/03/01 07:41:54;;;;;;;25.48;17.33;;;;;;;;;;5038883;28;20202;-67
2024/03/01 07:44:20;;;;;;;30.42;18.50;;;11.50;93.60;;;;;;5039505;28;20132;-66
2024/03/01 07:46:46;;;;;;;35.17;19.50;;;11.20;97.70;;;;;;5039035;28;20083;-66
2024/03/01 07:49:14;;;;;;;28.48;19.27;;;11.40;98.30;;;;;;5040554;28;20321;-67
2024/03/01 07:51:40;;;;;;;29.95;18.55;;;11.40;98.40;;;;;;5043012;28;20030;-67
2024/03/01 07:54:06;;;;;;;35.33;18.65;;;11.40;98.50;;;;;;5040802;28;20081;-67
2024/03/01 07:56:32;;;;;;;31.73;17.65;;;11.30;98.80;;;;;;5043111;28;20030;-66
2024/03/01 07:59:04;;;;;;;31.88;16.95;;;11.20;99.30;;;;;;5042734;28;20276;-68
2024/03/01 08:01:30;;;;;;;34.78;18.00;;;11.10;99.30;;;;;;5043046;28;20109;-68
2024/03/01 08:03:56;;;;;;;30.92;18.33;;;11.20;99.70;;;;;;5043736;28;20014;-67
2024/03/01 08:06:22;;;;;;;34.67;19.33;;;11.10;99.90;;;;;;5042903;28;20029;-67
2024/03/01 08:08:51;;;;;;;30.92;18.10;;;11.20;99.90;;;;;;5042439;28;20024;-66
2024/03/01 08:11:41;;;;;;;31.17;18.05;;;11.10;99.90;;;;;;5042785;28;20025;-67
2024/03/01 08:14:22;;;;;;;32.13;18.80;;;11.50;99.90;;;;;;5042253;28;20116;-66
2024/03/01 08:16:52;;;;;;;31.58;18.73;;;10.70;93.50;;;;;;5042249;28;20021;-66
2024/03/01 08:19:19;;;;;;;31.95;18.73;;;11.10;99.90;;;;;;5042094;28;20045;-65
2024/03/01 08:21:45;;;;;;;30.88;18.95;;;11.20;99.90;;;;;;5041743;28;20052;-66
2024/03/01 08:24:13;;;;;;;32.78;18.42;;;11.50;99.90;;;;;;5041986;28;20029;-66
2024/03/01 08:26:40;;;;;;;26.75;17.45;;;11.30;99.90;;;;;;5042263;28;20033;-66
2024/03/01 08:29:07;;;;;;;29.30;16.58;;;;;;;;;;5042210;28;20033;-67
2024/03/01 08:31:34;;;;;;;30.10;18.75;;;11.10;99.90;;;;;;5042123;28;20037;-65
2024/03/01 08:34:20;;;;;;;28.45;18.65;;;11.00;94.40;;;;;;5041729;28;20332;-66
2024/03/01 08:36:46;;;;;;;34.45;18.63;;;11.20;99.90;;;;;;5042057;28;20034;-66
2024/03/01 08:39:15;;;;;;;31.33;18.33;;;11.30;99.90;;;;;;5042153;28;20321;-66
2024/03/01 08:41:45;;;;;;;35.47;19.13;;;11.80;99.90;;;;;;5041749;28;20033;-66
2024/03/01 08:44:46;;;;;;;32.45;17.95;;;11.40;99.90;;;;;;5041978;28;20044;-65
2024/03/01 08:47:18;;;;;;;31.00;18.45;;;11.60;99.90;;;;;;5041710;28;20021;-66
2024/03/01 08:49:44;;;;;;;31.40;19.02;;;11.80;99.90;;;;;;5041408;28;20258;-66
2024/03/01 08:52:37;;;;;;;29.27;18.30;;;11.90;99.90;;;;;;5041679;28;20091;-66
2024/03/01 08:55:17;;;;;;;28.55;18.00;;;12.50;99.70;;;;;;5040424;28;20097;-66
2024/03/01 08:57:45;;;;;;;33.78;19.30;;;12.70;98.30;;;;;;5024687;28;20404;-67
2024/03/01 09:00:26;;;;;;;29.83;17.70;;;13.20;96.90;;;;;;5040070;28;20213;-67
2024/03/01 09:02:52;;;;;;;27.42;18.40;;;13.60;95.80;;;;;;5037410;28;20095;-66
2024/03/01 09:05:21;;;;;;;32.58;19.05;;;14.00;94.30;;;;;;5041255;28;20044;-67
2024/03/01 09:07:47;;;;;;;;;;;13.90;84.80;;;;;;5041743;28;20341;-68
2024/03/01 09:10:22;;;;;;;30.25;18.00;;;14.00;93.90;;;;;;5041207;28;19908;-67
2024/03/01 09:12:48;;;;;;;30.27;18.40;;;13.90;93.40;;;;;;5041240;28;20085;-71
2024/03/01 09:15:21;;;;;;;29.45;18.58;;;13.60;93.90;;;;;;5041325;28;20036;-68
2024/03/01 09:17:47;;;;;;;27.13;18.02;;;13.90;93.90;;;;;;5041385;28;20056;-68
2024/03/01 09:20:26;;;;;;;25.20;17.83;;;13.90;93.50;;;;;;5041087;28;20326;-67
2024/03/01 09:22:52;;;;;;;30.30;17.90;;;13.80;82.50;;;;;;5041138;28;20531;-67
2024/03/01 09:25:49;;;;;;;30.60;17.60;;;13.80;83.30;;;;;;5041260;28;20104;-68
2024/03/01 09:28:16;;;;;;;31.92;18.70;;;14.20;92.40;;;;;;5041205;28;20554;-68
2024/03/01 09:30:45;;;;;;;27.40;17.85;;;14.60;92.10;;;;;;5040941;28;20333;-68
2024/03/01 09:33:12;;;;;;;;;;;14.40;79.90;;;;;;5042019;28;20225;-71
2024/03/01 09:35:38;;;;;;;27.63;17.95;;;14.70;91.30;;;;;;5040825;28;20224;-68
2024/03/01 09:38:06;;;;;;;29.08;17.70;;;14.50;91.10;;;;;;5041105;28;20013;-69
2024/03/01 09:40:37;;;;;;;30.02;17.45;;;14.60;91.10;;;;;;5040661;28;20401;-68
2024/03/01 09:43:12;;;;;;;28.48;17.67;;;14.50;77.70;;;;;;5040699;28;20100;-67
2024/03/01 09:46:06;;;;;;;29.98;16.90;;;14.40;90.70;;;;;;5040647;28;20121;-68
2024/03/01 09:48:55;;;;;;;28.85;16.23;;;14.40;91.30;;;;;;5036800;28;20034;-68
2024/03/01 09:51:24;;;;;;;31.85;17.20;;;14.50;91.00;;;;;;5039912;28;20033;-68
2024/03/01 09:54:14;;;;;;;28.75;16.55;;;14.50;77.90;;;;;;5040570;28;20269;-68
2024/03/01 09:56:55;;;;;;;23.40;15.95;;;14.60;77.40;;;;;;5040468;28;20104;-67
2024/03/01 09:59:24;;;;;;;27.67;16.55;;;14.80;90.50;;;;;;5040243;28;20120;-68
2024/03/01 10:01:58;;;;;;;29.30;15.88;;;14.70;90.30;;;;;;5040421;28;20035;-68
2024/03/01 10:04:36;;;;;;;25.13;16.20;;;14.70;76.10;;;;;;5040319;28;20096;-68
2024/03/01 10:07:29;;;;;;;28.50;15.38;;;14.80;90.40;;;;;;5040102;28;20280;-67
2024/03/01 10:10:26;;;;;;;23.45;14.25;;;14.70;90.10;;;;;;5039267;28;20025;-68
2024/03/01 10:12:56;;;;;;;25.80;15.05;;;14.90;90.10;;;;;;5040049;28;20645;-68
2024/03/01 10:15:39;;;;;;;25.55;13.52;;;15.20;89.50;;;;;;5039125;28;20221;-68
2024/03/01 10:18:26;;;;;;;23.55;12.55;;;15.00;74.80;;;;;;5040079;28;20229;-67
2024/03/01 10:21:16;;;;;;;20.95;14.02;;;14.70;88.50;;;;;;5040144;28;20059;-68
2024/03/01 10:23:54;;;;;;;26.17;12.95;;;14.70;74.10;;;;;;5040212;28;20328;-69
2024/03/01 10:26:31;;;;;;;18.50;12.07;;;14.40;89.10;;;;;;5040148;28;20025;-67
2024/03/01 10:29:20;;;;;;;22.30;12.98;;;14.70;74.90;;;;;;5039944;28;20045;-68
2024/03/01 10:32:04;;;;;;;;;;;14.70;74.70;;;;;;5040463;28;20041;-67
2024/03/01 10:35:09;;;;;;;17.73;11.07;;;14.80;88.40;;;;;;5039557;28;19936;-67
2024/03/01 10:38:16;;;;;;;25.60;13.07;;;14.90;89.70;;;;;;5037148;28;20068;-67
2024/03/01 10:40:54;;;;;;;19.58;12.45;;;14.70;88.50;;;;;;5031719;28;20042;-67
2024/03/01 10:43:53;;;;;;;17.92;11.52;;;14.70;88.40;;;;;;5038506;28;20029;-67
2024/03/01 10:46:32;;;;;;;19.55;12.35;;;14.80;73.90;;;;;;5039555;28;20021;-68
2024/03/01 10:49:13;;;;;;;21.73;11.57;;;14.90;89.80;;;;;;5039475;28;20036;-67
2024/03/01 10:51:44;;;;;;;21.20;11.77;;;14.90;89.50;;;;;;5039611;28;20032;-67
2024/03/01 10:54:13;;;;;;;18.98;10.95;;;14.80;89.60;;;;;;5039249;28;20029;-67
2024/03/01 10:56:39;;;;;;;22.42;10.60;;;14.60;89.40;;;;;;5039532;28;20029;-67
2024/03/01 10:59:08;;;;;;;21.10;11.60;;;14.50;88.90;;;;;;5039398;28;20263;-67
2024/03/01 11:01:46;;;;;;;20.80;11.38;;;14.60;89.70;;;;;;5039534;28;20044;-67
2024/03/01 11:04:28;;;;;;;18.05;11.25;;;14.60;90.00;;;;;;5039425;28;20075;-67
2024/03/01 11:07:01;;;;;;;15.38;9.38;;;14.80;75.10;;;;;;5039561;28;20099;-67
2024/03/01 11:09:38;;;;;;;19.15;9.73;;;15.10;89.30;;;;;;5039568;28;20100;-67
2024/03/01 11:12:21;;;;;;;18.95;9.43;;;15.30;88.60;;;;;;5038143;28;20043;-67
2024/03/01 11:14:56;;;;;;;19.77;9.52;;;15.20;74.00;;;;;;5039413;28;20089;-67
2024/03/01 11:17:25;;;;;;;18.90;9.13;;;15.20;74.00;;;;;;5039258;28;20028;-67
2024/03/01 11:19:54;;;;;;;17.33;10.02;;;15.30;73.90;;;;;;5039096;28;20052;-67
2024/03/01 11:22:24;;;;;;;16.42;9.77;;;15.20;88.90;;;;;;5039764;28;20052;-67
2024/03/01 11:25:11;;;;;;;15.05;9.07;;;15.20;74.60;;;;;;5042102;28;20021;-68
2024/03/01 11:28:04;;;;;;;14.90;9.45;;;15.20;89.60;;;;;;5043445;28;20029;-66
2024/03/01 11:30:36;;;;;;;15.32;10.05;;;14.90;90.20;;;;;;5039962;28;20069;-67
2024/03/01 11:33:04;;;;;;;14.40;9.55;;;14.80;76.30;;;;;;5043279;28;20252;-67
2024/03/01 11:35:46;;;;;;;15.87;10.67;;;14.70;91.20;;;;;;5043019;28;20076;-69
2024/03/01 11:38:24;;;;;;;19.17;11.05;;;14.80;78.30;;;;;;5043098;28;20312;-67
2024/03/01 11:41:09;;;;;;;17.83;10.68;;;14.70;91.40;;;;;;5043003;28;20100;-67
2024/03/01 11:44:08;;;;;;;20.75;11.63;;;14.50;91.90;;;;;;5043274;28;20051;-67
2024/03/01 11:47:08;;;;;;;20.60;10.25;;;14.50;80.20;;;;;;5042862;28;20025;-67
2024/03/01 11:49:48;;;;;;;16.40;10.25;;;14.20;93.10;;;;;;5043040;28;20348;-67
2024/03/01 11:52:17;;;;;;;19.38;10.43;;;14.20;93.70;;;;;;5043847;28;20036;-67
2024/03/01 11:54:42;;;;;;;16.98;11.43;;;14.00;94.50;;;;;;5045265;28;20048;-67
2024/03/01 11:57:23;;;;;;;18.85;11.63;;;14.00;95.10;;;;;;5044937;28;20202;-67
2024/03/01 11:59:55;;;;;;;24.83;11.15;;;14.00;96.40;;;;;;5044562;28;20059;-67
2024/03/01 12:02:31;;;;;;;19.55;10.77;;;14.10;95.30;;;;;;5044569;28;20040;-68
2024/03/01 12:05:22;;;;;;;21.75;11.60;;;13.80;97.20;;;;;;5044781;28;20040;-68
2024/03/01 12:08:01;;;;;;;17.15;11.43;;;13.80;97.70;;;;;;5044360;28;20025;-67
2024/03/01 12:10:55;;;;;;;17.55;12.15;;;13.80;97.70;;;;;;5044180;28;20245;-69
2024/03/01 12:13:23;;;;;;;16.45;11.63;;;14.00;91.50;;;;;;5044053;28;20034;-67
2024/03/01 12:16:06;;;;;;;16.63;10.50;;;14.50;98.50;;;;;;5043821;28;20287;-68
2024/03/01 12:18:45;;;;;;;19.65;11.18;;;14.00;98.40;;;;;;5043275;28;20135;-68
2024/03/01 12:21:19;;;;;;;19.38;11.57;;;14.20;98.90;;;;;;5042362;28;20432;-68
2024/03/01 12:24:10;;;;;;;21.33;11.70;;;14.40;99.10;;;;;;5042230;28;20029;-73
2024/03/01 12:26:54;;;;;;;16.33;11.35;;;14.20;92.60;;;;;;5042178;28;20089;-67
2024/03/01 12:29:41;;;;;;;20.05;12.27;;;14.10;99.90;;;;;;5042413;28;20092;-67
2024/03/01 12:32:20;;;;;;;18.15;11.27;;;14.30;99.90;;;;;;5042103;28;20598;-67
2024/03/01 12:35:03;;;;;;;19.98;13.02;;;14.20;99.90;;;;;;5041815;28;20116;-67
2024/03/01 12:37:50;;;;;;;18.35;11.95;;;14.50;99.70;;;;;;5042263;28;20032;-67
2024/03/01 12:40:18;;;;;;;17.88;12.30;;;14.10;99.90;;;;;;5042265;28;20033;-68
2024/03/01 12:43:21;;;;;;;22.08;12.45;;;13.90;99.90;;;;;;5042519;28;20022;-67
2024/03/01 12:46:01;;;;;;;18.20;11.40;;;13.70;99.90;;;;;;5042221;28;20032;-67
2024/03/01 12:48:39;;;;;;;19.30;12.43;;;14.00;99.90;;;;;;5042517;28;20032;-67
2024/03/01 12:51:08;;;;;;;18.13;13.68;;;13.70;99.90;;;;;;5042531;28;20022;-67
2024/03/01 12:53:56;;;;;;;20.05;13.68;;;13.70;99.90;;;;;;5042386;28;20029;-67
2024/03/01 12:56:28;;;;;;;20.50;13.45;;;13.80;99.90;;;;;;5042427;28;20057;-67
2024/03/01 12:59:09;;;;;;;19.92;12.88;;;13.60;99.90;;;;;;5042287;28;20039;-67
2024/03/01 13:01:34;;;;;;;22.90;13.93;;;13.50;99.90;;;;;;5041898;28;20333;-67
2024/03/01 13:04:15;;;;;;;23.92;15.05;;;13.60;99.90;;;;;;5041838;28;20036;-68
2024/03/01 13:06:46;;;;;;;19.05;14.07;;;13.70;99.90;;;;;;5041842;28;20029;-67